createdAt,value
2022-10-19T04:00:42.905Z,101038.44
2022-10-19T04:03:45.505Z,101038.44
2022-10-19T04:06:49.973Z,101052.91
2022-10-19T04:09:52.277Z,101043.22
2022-10-19T04:12:54.309Z,101039.72
2022-10-19T04:15:56.637Z,101044.59
2022-10-19T04:18:59.334Z,101044.00
2022-10-19T04:22:01.675Z,101043.69
2022-10-19T04:25:04.440Z,101051.69
2022-10-19T04:28:06.783Z,101051.28
2022-10-19T04:31:08.876Z,101065.53
2022-10-19T04:34:12.115Z,101050.78
2022-10-19T04:37:14.154Z,101051.31
2022-10-19T04:40:16.531Z,101046.69
2022-10-19T04:43:18.566Z,101052.12
2022-10-19T04:46:20.966Z,101043.56
2022-10-19T04:49:23.003Z,101052.69
2022-10-19T04:52:25.285Z,101050.31
2022-10-19T04:55:27.450Z,101047.59
2022-10-19T04:58:29.759Z,101056.41
2022-10-19T05:01:31.931Z,101039.72
2022-10-19T05:04:34.210Z,101056.34
2022-10-19T05:07:36.599Z,101045.06
2022-10-19T05:10:39.932Z,101040.69
2022-10-19T05:13:43.284Z,101053.87
2022-10-19T05:16:45.672Z,101054.22
2022-10-19T05:19:47.797Z,101059.09
2022-10-19T05:22:51.018Z,101069.41
2022-10-19T05:26:04.342Z,101073.22
2022-10-19T05:29:06.756Z,101055.91
2022-10-19T05:32:08.839Z,101068.28
2022-10-19T05:35:11.195Z,101069.38
2022-10-19T05:38:13.259Z,101059.16
2022-10-19T05:41:16.220Z,101062.47
2022-10-19T05:44:23.182Z,101075.41
2022-10-19T05:47:28.654Z,101071.94
2022-10-19T05:50:33.081Z,101070.25
2022-10-19T05:53:35.667Z,101075.00
2022-10-19T05:56:37.913Z,101078.00
2022-10-19T05:59:40.250Z,101070.97
2022-10-19T06:02:42.845Z,101076.94
2022-10-19T06:05:45.989Z,101093.12
2022-10-19T06:08:49.000Z,101085.28
2022-10-19T06:11:51.314Z,101093.75
2022-10-19T06:14:53.387Z,101100.63
2022-10-19T06:17:55.713Z,101099.94
2022-10-19T06:21:03.990Z,101103.62
2022-10-19T06:24:06.581Z,101107.53
2022-10-19T06:27:08.684Z,101101.66
2022-10-19T06:30:11.524Z,101105.38
2022-10-19T06:33:13.558Z,101112.06
2022-10-19T06:36:19.393Z,101116.88
2022-10-19T06:39:21.435Z,101119.91
2022-10-19T06:42:23.745Z,101122.59
2022-10-19T06:45:25.874Z,101135.03
2022-10-19T06:48:28.165Z,101131.72
2022-10-19T06:51:34.594Z,101137.28
2022-10-19T06:54:37.446Z,101144.53
2022-10-19T06:57:39.657Z,101139.63
2022-10-19T07:00:42.226Z,101143.06
2022-10-19T07:03:44.462Z,101147.56
2022-10-19T07:06:47.330Z,101158.53
2022-10-19T07:09:49.466Z,101165.69
2022-10-19T07:12:51.844Z,101161.63
2022-10-19T07:16:14.536Z,101163.72
2022-10-19T07:19:20.198Z,101177.22
2022-10-19T07:22:27.245Z,101178.91
2022-10-19T07:25:30.803Z,101183.66
2022-10-19T07:28:33.017Z,101182.56
2022-10-19T07:31:35.597Z,101191.16
2022-10-19T07:34:37.619Z,101189.97
2022-10-19T07:37:39.905Z,101194.59
2022-10-19T07:40:44.884Z,101191.31
2022-10-19T07:43:50.481Z,101196.88
2022-10-19T07:46:52.505Z,101206.00
2022-10-19T07:49:54.817Z,101200.50
2022-10-19T07:52:56.897Z,101194.06
2022-10-19T07:56:07.522Z,101198.94
2022-10-19T07:59:10.262Z,101196.03
2022-10-19T08:02:17.376Z,101183.72
2022-10-19T08:05:19.810Z,101190.44
2022-10-19T08:08:21.876Z,101178.25
2022-10-19T08:11:25.557Z,101184.25
2022-10-19T08:14:27.793Z,101179.78
2022-10-19T08:17:30.812Z,101172.66
2022-10-19T08:20:32.858Z,101179.78
2022-10-19T08:23:35.179Z,101187.50
2022-10-19T08:26:38.851Z,101186.31
2022-10-19T08:29:41.198Z,101185.59
2022-10-19T08:32:43.294Z,101187.62
2022-10-19T08:35:45.600Z,101191.00
2022-10-19T08:38:49.470Z,101182.09
2022-10-19T08:42:03.619Z,101174.56
2022-10-19T08:45:09.091Z,101190.22
2022-10-19T08:48:24.720Z,101190.13
2022-10-19T08:51:28.426Z,101188.22
2022-10-19T08:54:42.116Z,101189.41
2022-10-19T08:58:03.986Z,101182.94
2022-10-19T09:01:29.434Z,101193.97
2022-10-19T09:04:48.233Z,101196.94
2022-10-19T09:07:54.078Z,101196.34
2022-10-19T09:10:57.427Z,101196.84
2022-10-19T09:14:16.176Z,101193.97
2022-10-19T09:17:18.253Z,101195.87
2022-10-19T09:20:24.817Z,101197.84
2022-10-19T09:23:38.176Z,101188.53
2022-10-19T09:26:51.722Z,101187.72
2022-10-19T09:30:06.122Z,101183.09
2022-10-19T09:33:15.957Z,101191.31
2022-10-19T09:36:22.767Z,101191.16
2022-10-19T09:39:32.111Z,101193.88
2022-10-19T09:42:37.094Z,101192.09
2022-10-19T09:45:42.764Z,101187.69
2022-10-19T09:48:50.005Z,101193.25
2022-10-19T09:51:52.824Z,101199.28
2022-10-19T09:55:14.515Z,101196.44
2022-10-19T09:58:19.414Z,101195.53
2022-10-19T10:01:41.421Z,101187.16
2022-10-19T10:04:47.424Z,101186.28
2022-10-19T10:07:55.060Z,101178.69
2022-10-19T10:11:10.655Z,101179.00
2022-10-19T10:14:33.938Z,101175.69
2022-10-19T10:17:37.251Z,101173.84
2022-10-19T10:24:05.532Z,101165.00
2022-10-19T10:27:35.033Z,101161.81
2022-10-19T10:30:37.784Z,101153.16
2022-10-19T10:33:45.143Z,101152.16
2022-10-19T10:36:53.964Z,101148.13
2022-10-19T10:40:01.878Z,101145.34
2022-10-19T10:43:18.922Z,101144.56
2022-10-19T10:46:27.741Z,101140.84
2022-10-19T10:49:34.730Z,101139.94
2022-10-19T10:52:37.533Z,101134.91
2022-10-19T10:55:40.135Z,101129.19
2022-10-19T10:58:54.530Z,101130.94
2022-10-19T11:02:15.164Z,101119.28
2022-10-19T11:05:29.437Z,101122.34
2022-10-19T11:08:48.564Z,101112.03
2022-10-19T11:11:55.887Z,101100.00
2022-10-19T11:15:06.713Z,101098.25
2022-10-19T11:18:20.027Z,101098.31
2022-10-19T11:21:42.473Z,101098.75
2022-10-19T11:25:19.891Z,101102.78
2022-10-19T11:28:28.832Z,101093.53
2022-10-19T11:31:54.009Z,101108.03
2022-10-19T11:35:06.983Z,101101.53
2022-10-19T11:38:30.830Z,101100.84
2022-10-19T11:41:47.737Z,101100.50
2022-10-19T11:45:08.538Z,101102.09
2022-10-19T11:48:39.346Z,101084.84
2022-10-19T11:51:57.619Z,101093.12
2022-10-19T11:55:07.767Z,101088.97
2022-10-19T11:58:35.391Z,101084.34
2022-10-19T12:02:05.219Z,101079.75
2022-10-19T12:05:27.840Z,101087.91
2022-10-19T12:08:35.516Z,101079.09
2022-10-19T12:11:43.806Z,101081.97
2022-10-19T12:14:51.211Z,101087.87
2022-10-19T12:17:57.096Z,101087.41
2022-10-19T12:21:02.847Z,101080.16
2022-10-19T12:24:16.460Z,101083.69
2022-10-19T12:27:28.057Z,101069.94
2022-10-19T12:30:34.432Z,101066.28
2022-10-19T12:33:36.287Z,101057.97
2022-10-19T12:37:10.863Z,101058.28
2022-10-19T12:40:37.921Z,101060.50
2022-10-19T12:43:49.345Z,101054.63
2022-10-19T12:47:00.778Z,101044.75
2022-10-19T12:50:03.909Z,101044.09
2022-10-19T12:53:06.004Z,101055.59
2022-10-19T12:56:11.758Z,101055.09
2022-10-19T12:59:40.168Z,101043.09
2022-10-19T13:02:42.784Z,101052.88
2022-10-19T13:05:56.385Z,101042.03
2022-10-19T13:09:02.852Z,101032.94
2022-10-19T13:12:21.450Z,101041.22
2022-10-19T13:15:37.755Z,101030.25
2022-10-19T13:19:03.866Z,101028.00
2022-10-19T13:22:26.215Z,101030.22
2022-10-19T13:25:35.092Z,101029.87
2022-10-19T13:28:38.581Z,101035.34
2022-10-19T13:31:41.401Z,101029.25
2022-10-19T13:34:44.126Z,101027.50
2022-10-19T13:37:46.189Z,101035.16
2022-10-19T13:40:48.381Z,101043.31
2022-10-19T13:44:00.675Z,101037.66
2022-10-19T13:47:29.357Z,101037.34
2022-10-19T13:50:58.187Z,101043.75
2022-10-19T13:54:23.684Z,101042.31
2022-10-19T13:57:34.794Z,101046.09
2022-10-19T14:01:16.002Z,101045.28
2022-10-19T14:05:05.183Z,101039.09
2022-10-19T14:08:20.906Z,101052.72
2022-10-19T14:11:33.782Z,101036.94
2022-10-19T14:17:49.144Z,101044.53
2022-10-19T14:21:08.980Z,101048.97
2022-10-19T14:24:40.624Z,101051.41
2022-10-19T14:27:43.366Z,101052.31
2022-10-19T14:30:54.862Z,101041.06
2022-10-19T14:34:02.054Z,101047.59
2022-10-19T14:37:04.391Z,101053.97
2022-10-19T14:40:40.960Z,101060.00
2022-10-19T14:43:43.377Z,101054.37
2022-10-19T14:46:48.466Z,101065.84
2022-10-19T14:49:51.177Z,101051.44
2022-10-19T14:52:58.577Z,101042.62
2022-10-19T14:56:10.216Z,101053.78
2022-10-19T14:59:29.854Z,101038.59
2022-10-19T15:02:37.931Z,101042.44
2022-10-19T15:05:48.248Z,101053.50
2022-10-19T15:09:03.835Z,101046.31
2022-10-19T15:12:15.498Z,101041.38
2022-10-19T15:15:30.581Z,101046.13
2022-10-19T15:18:55.094Z,101053.41
2022-10-19T15:22:09.476Z,101047.22
2022-10-19T15:25:11.407Z,101048.34
2022-10-19T15:28:41.645Z,101053.75
2022-10-19T15:31:44.094Z,101056.28
